Tiempo atmosférico en la estación meteorológica de Arroyo Del Ojanco, Jaén (580 m.)



Fecha
DESCASC
Temp. máxima en grados centígrados (hora)
DESCASC
Temp. mínima en grados centígrados (hora)
DESCASC
Temp. media en grados centígrados
DESCASC
Racha de viento máxima en m/sg (hora)
DESCASC
Velocidad máxima media en intervalos de 10 minutos(hora)
DESCASC
Precipitaciones diarias en mm
DESCASC
Precipitaciones de 00:00 a 06:00 en mm
DESCASC
Precipitaciones de 06:00 a 12:00 en mm
DESCASC
Precipitaciones de 12:00 a 18:00 en mm
DESCASC
Precipitaciones de 18:00 a 24:00 en mm
DESCASC
20-09-2018 32.8 (17:50) 16.2 (08:00) 24.5 6.11 (22:20) 3.89 (20:00) 0 0 0 0 0
19-09-2018 30.4 (14:30) 16.9 (07:30) 23.6 7.5 (17:30) 3.89 (17:20) 0 0 0 0 0
18-09-2018 29.6 (14:40) 16.5 (07:20) 23.1 13.89 (15:50) 6.11 (16:20) 20.3 0 0 20.2 0.1
17-09-2018 29.9 (14:20) 17.8 (08:20) 23.8 11.11 (15:00) 6.11 (15:00) 0.6 0 0 0.6 0
16-09-2018 31.8 (17:00) 15.9 (00:00) 23.8 6.39 (17:10) 3.89 (17:10) 0 0 0 0 0
15-09-2018 25.6 (17:40) 17.5 (00:00) 21.6 6.94 (15:20) 4.17 (13:00) 0 0 0 0 0
14-09-2018 31.1 (15:20) 19.3 (00:00) 25.2 9.44 (18:50) 5.56 (18:50) 0 0 0 0 0
13-09-2018 32.9 (16:10) 17.8 (00:00) 25.4 6.39 (14:20) 3.89 (20:50) 0 0 0 0 0
12-09-2018 30.5 (14:40) 17.6 (00:00) 24.1 6.94 (15:20) 3.61 (15:20) 0.1 0 0 0.1 0
11-09-2018 29.3 (18:00) 18.7 (00:00) 24 7.5 (17:40) 4.44 (04:30) 0 0 0 0 0
10-09-2018 28.8 (16:20) 14.8 (00:00) 21.8 14.17 (02:10) 8.33 (02:30) 12.1 12.1 0 0 0
09-09-2018 26.6 (16:50) 14.3 (00:00) 20.5 10.28 (22:20) 5.83 (23:00) 1.5 0 0.1 0 1.4
08-09-2018 25 (00:00) 16.1 (00:00) 20.6 13.33 (08:20) 8.06 (08:10) 2 0 1.3 0.7 0
07-09-2018 31.9 (17:20) 17.5 (00:00) 24.7 8.06 (17:10) 3.89 (22:00) 0 0 0 0 0
06-09-2018 29.5 (17:40) 16.2 (00:00) 22.9 8.89 (13:40) 3.33 (01:10) 0 0 0 0 0
05-09-2018 28.8 (17:00) 17.4 (00:00) 23.1 8.89 (16:20) 5 (18:50) 0 0 0 0 0
04-09-2018 31.4 (17:10) 16.9 (00:00) 24.1 8.33 (14:20) 4.72 (14:20) 0 0 0 0 0
03-09-2018 34.1 (17:10) 21.7 (00:00) 27.9 8.33 (06:10) 5 (23:30) 0 0 0 0 0
02-09-2018 37 (18:00) 21.3 (00:00) 29.1 5.83 (13:40) 3.33 (14:30) 0 0 0 0 0
01-09-2018 37.3 (16:30) 20.9 (00:00) 29.1 6.67 (16:00) 3.61 (16:00) 0 0 0 0 0
31-08-2018 36.1 (17:20) 20.8 (00:00) 28.4 15.83 (20:50) 4.17 (22:20) 0 0 0 0 0
30-08-2018 -- (--) -- (--) -- -- (--) -- (--) -- 0 -- -- --
29-08-2018 34.6 (16:30) 22 (00:00) 28.3 8.06 (01:40) 5 (02:10) 0 0 0 0 0
28-08-2018 36.5 (17:20) 24 (00:00) 30.3 7.5 (16:20) 4.44 (23:59) 0 0 0 0 0
27-08-2018 39 (17:50) 18.4 (00:00) 28.7 9.72 (23:10) 5.28 (23:10) 0 0 0 0 0
26-08-2018 36.3 (17:00) 18.5 (00:00) 27.4 9.17 (14:00) 4.72 (16:30) 0 0 0 0 0
25-08-2018 36.2 (17:00) 20 (00:00) 28.1 7.78 (16:10) 3.89 (15:40) 0 0 0 0 0

Gráficas

Temp. máximas Temp. mínimas Temp. medias Precipitaciones Rachas de viento máximas Velocidades máximas media en intervalos de 10 minutos

Datos horarios

Fecha y hora oficial Temperatura (ºC) Velocidad del viento (km/h) Dirección del viento Racha (km/h) Dirección de racha Precipitación (mm) Presión (hPa) Tendencia (hPa) Humedad (%)
2018-09-23 23:00:00 25.7 0 Calma 9 Sudeste 0 949.9 1.4 45
2018-09-23 22:00:00 26.8 0 Calma 13 Sur 0 949.6 1.1 44
2018-09-23 21:00:00 28.8 4 Sur 13 Sur 0 949.1 0.6 42
2018-09-23 20:00:00 30 5 Sur 11 Sudeste 0 948.5 -0.2 39
2018-09-23 19:00:00 32.8 5 Sudoeste 8 Oeste 0 948.5 -0.5 37
2018-09-23 18:00:00 34.6 6 Oeste 13 Sudoeste 0 948.5 -1.1 33
2018-09-23 17:00:00 34.6 7 Sudoeste 15 Este 0 948.7 -1.6 34
2018-09-23 16:00:00 34 10 Nordeste 23 Norte 0 949 -1.9 35
2018-09-23 15:00:00 34 7 Norte 19 Oeste 0 949.6 -1.9 35
2018-09-23 14:00:00 32.9 0 Calma 12 Noroeste 0 950.3 -1.2 38
2018-09-23 13:00:00 31.2 4 Noroeste 13 Oeste 0 950.9 -0.4 43
2018-09-23 12:00:00 29.3 6 Noroeste 10 Noroeste 0 951.5 0.9 47
2018-09-23 11:00:00 26.7 0 Calma 6 Nordeste 0 951.5 1.8 57
2018-09-23 10:00:00 24.2 0 Calma 8 Norte 0 951.3 1.8 62
2018-09-23 09:00:00 20.4 0 Calma 10 Nordeste 0 950.6 1.1 73
2018-09-23 08:00:00 18.4 0 Calma 8 Nordeste 0 949.7 0.1 77
2018-09-23 07:00:00 18.2 0 Calma -- -- 0 949.5 -0.2 78
2018-09-23 06:00:00 19.2 0 Calma -- -- 0 949.5 -0.8 73
2018-09-23 05:00:00 19.8 0 Calma -- -- 0 949.6 -0.8 71
2018-09-23 04:00:00 20.8 0 Calma -- -- 0 949.7 -1 65
2018-09-23 03:00:00 21.7 0 Calma 7 Nordeste 0 950.3 -0.4 61
2018-09-23 02:00:00 23.2 2 Sur 8 Sur 0 950.4 -0.4 56
2018-09-23 01:00:00 23.8 0 Calma 8 Nordeste 0 950.7 0.3 52
2018-09-23 00:00:00 25 0 Calma 8 Este 0 950.7 0.8 47
2018-09-22 23:00:00 27.6 4 Oeste 21 Sudeste 0 950.8 1.4 41
2018-09-22 22:00:00 29.1 12 Este 24 Este 0 950.4 1.2 39
2018-09-22 21:00:00 28.8 3 Sudeste 13 Nordeste 0 949.9 0.8 41
2018-09-22 20:00:00 28.5 7 Sudeste 9 Sudeste 0 949.4 0.2 41
2018-09-22 19:00:00 33.6 0 Calma 7 Nordeste 0 949.2 -0.4 34
2018-09-22 18:00:00 34.6 2 Sudoeste 14 Nordeste 0 949.1 -1.1 32
2018-09-22 17:00:00 33.8 4 Nordeste 14 Nordeste 0 949.2 -1.4 32
2018-09-22 16:00:00 34 7 Noroeste 17 Noroeste 0 949.6 -1.3 33
2018-09-22 15:00:00 33.2 3 Este 15 Noroeste 0 950.2 -1.1 35
2018-09-22 14:00:00 32.6 4 Noroeste 13 Oeste 0 950.6 -0.4 38
2018-09-22 13:00:00 31.5 4 Oeste 9 Oeste 0 950.9 0.4 41
2018-09-22 12:00:00 29.1 0 Calma 9 Norte 0 951.3 1.7 47
2018-09-22 11:00:00 26.7 0 Calma 5 Sudoeste 0 951 1.8 58
2018-09-22 10:00:00 23.2 0 Calma 0 Calma 0 950.5 1.9 67
2018-09-22 09:00:00 20.6 0 Calma -- -- 0 949.6 1.3 80
2018-09-22 08:00:00 18.2 0 Calma -- -- 0 949.2 1.1 86
2018-09-22 07:00:00 18.6 0 Calma -- -- 0 948.6 0.5 83
2018-09-22 06:00:00 19.1 0 Calma 6 Nordeste 0 948.3 0.1 80
2018-09-22 05:00:00 19.6 0 Calma 5 Nordeste 0 948.1 -0.2 78
2018-09-22 04:00:00 20.4 0 Calma -- -- 0 948.1 -0.3 74
2018-09-22 03:00:00 21.6 0 Calma 8 Nordeste 0 948.2 -0.2 69
2018-09-22 02:00:00 23.2 0 Calma 8 Sur 0 948.3 0.3 61
2018-09-22 01:00:00 23.3 2 Sur 10 Sur 0 948.4 0.7 60
2018-09-22 00:00:00 24.1 0 Calma 9 Nordeste 0 948.4 1.2 56
2018-09-21 23:00:00 25.9 5 Nordeste 8 Nordeste 0 948 1.3 50
2018-09-21 22:00:00 26.2 0 Calma 10 Sur 0 947.7 1.3 48
2018-09-21 21:00:00 28.7 7 Sudeste 14 Sudeste 0 947.2 1.2 41
2018-09-21 20:00:00 29.1 10 Sudeste 17 Sudeste 0 946.7 0.8 40
2018-09-21 19:00:00 30.7 6 Sur 10 Sudoeste 0 946.4 0 36
2018-09-21 18:00:00 33 5 Noroeste 12 Norte 0 946 -0.6 33
2018-09-21 17:00:00 33.2 5 Oeste 15 Oeste 0 945.9 -1.3 32
2018-09-21 16:00:00 32.5 5 Noroeste 15 Oeste 0 946.4 -1.6 35
2018-09-21 15:00:00 31.2 4 Nordeste 10 Noroeste 0 946.6 -1.8 38
2018-09-21 14:00:00 29.5 0 Calma 12 Noroeste 0 947.2 -1 43
2018-09-21 13:00:00 28.2 3 Sudoeste 12 Oeste 0 948 0.4 53
2018-09-21 12:00:00 26.3 5 Noroeste 14 Sudoeste 0 948.4 1.4 61
2018-09-21 11:00:00 24.3 7 Oeste 12 Sudoeste 0 948.2 1.5 65
2018-09-21 10:00:00 22 4 Norte 7 Norte 0 947.6 1.5 75
2018-09-21 09:00:00 19.7 0 Calma -- -- 0 947 1 89
2018-09-21 08:00:00 17.5 0 Calma -- -- 0 946.7 0.9 93
2018-09-21 07:00:00 17.9 0 Calma -- -- 0 946.1 0.3 89
2018-09-21 06:00:00 18.2 0 Calma 5 Norte 0 946 0.2 86
2018-09-21 05:00:00 18.9 0 Calma -- -- 0 945.8 -0.5 82
2018-09-21 04:00:00 19.5 0 Calma 3 Noroeste 0 945.8 -0.4 77
2018-09-21 03:00:00 20 0 Calma 9 Sudeste 0 945.8 -0.6 73
2018-09-21 02:00:00 20.7 0 Calma -- -- 0 946.3 -0.1 70
2018-09-21 01:00:00 21.8 0 Calma -- -- 0 946.2 0 65
2018-09-21 00:00:00 22.4 0 Calma 6 Nordeste 0 946.4 0.3 61
2018-09-20 23:00:00 23.2 0 Calma 22 Oeste 0 946.4 0.7 57
2018-09-20 22:00:00 23.9 0 Calma 7 Este 0 946.2 0.4 52
2018-09-20 21:00:00 26.4 3 Nordeste 21 Sudeste 0 946.1 0.5 44
2018-09-20 20:00:00 27.5 14 Sudeste 22 Sudeste 0 945.7 -0.3 41
2018-09-20 19:00:00 30.6 4 Nordeste 14 Nordeste 0 945.8 -0.4 35
2018-09-20 18:00:00 31.4 7 Nordeste 18 Sudoeste 0 945.6 -1.2 35
2018-09-20 17:00:00 32.1 6 Oeste 18 Oeste 0 946 -1.6 35
2018-09-20 16:00:00 31.7 7 Oeste 17 Sudoeste 0 946.2 -2.1 37
2018-09-20 15:00:00 31 2 Oeste 16 Oeste 0 946.8 -2 40
2018-09-20 14:00:00 29.8 5 Oeste 14 Oeste 0 947.6 -1.3 43
2018-09-20 13:00:00 27.6 6 Oeste 13 Oeste 0 948.3 -0.1 50
2018-09-20 12:00:00 25.4 6 Oeste 12 Oeste 0 948.8 1.2 61
2018-09-20 11:00:00 24 0 Calma 7 Noroeste 0 948.9 1.3 64
2018-09-20 10:00:00 21.3 3 Norte 5 Norte 0 948.4 1.1 76
2018-09-20 09:00:00 18.6 0 Calma 7 Nordeste 0 947.6 0.5 92
2018-09-20 08:00:00 16.3 0 Calma -- -- 0 947.6 0.7 96
2018-09-20 07:00:00 16.7 0 Calma -- -- 0 947.3 0.2 94
2018-09-20 06:00:00 17.1 0 Calma -- -- 0 947.1 -0.4 91
2018-09-20 05:00:00 17.8 0 Calma 3 Este 0 946.9 -1.1 87
2018-09-20 04:00:00 18.2 6 Nordeste 9 Norte 0 947.1 -1.2 88
2018-09-20 03:00:00 18.7 0 Calma -- -- 0 947.5 -1.1 84
2018-09-20 02:00:00 19.3 0 Calma -- -- 0 948 -0.5 82
2018-09-20 01:00:00 19.7 0 Calma -- -- 0 948.3 -0.3 79
2018-09-20 00:00:00 20.7 0 Calma -- -- 0 948.6 0.7 74
2018-09-19 23:00:00 21.2 0 Calma 8 Nordeste 0 948.5 1 72
2018-09-19 22:00:00 22.6 3 Nordeste 10 Nordeste 0 948.6 1.1 61
2018-09-19 21:00:00 25.1 3 Nordeste 15 Este 0 947.9 0.8 51
2018-09-19 20:00:00 25.3 0 Calma 18 Sudeste 0 947.5 0.3 51
2018-09-19 19:00:00 27 10 Sudeste 20 Sudeste 0 947.5 0.5 47
2018-09-19 18:00:00 27.3 14 Sudeste 27 Sudeste 0 947.1 -0.4 47
2018-09-19 17:00:00 28.2 7 Sudeste 10 Sudeste 0 947.2 -0.8 49
2018-09-19 16:00:00 28.7 0 Calma 17 Noroeste 0 947 -1.6 48
2018-09-19 15:00:00 30.2 6 Norte 14 Norte 0 947.5 -1.3 41
2018-09-19 14:00:00 29.3 6 Norte 12 Norte 0 948 -0.5 44
2018-09-19 13:00:00 28.1 4 Oeste 10 Noroeste 0 948.6 0.7 52
2018-09-19 12:00:00 26.7 0 Calma 7 Norte 0 948.8 1.6 58
2018-09-19 11:00:00 23.8 0 Calma 8 Norte 0 948.5 2.2 69
2018-09-19 10:00:00 21.9 3 Nordeste 8 Norte 0 947.9 2.2 74
2018-09-19 09:00:00 19.3 4 Nordeste 11 Nordeste 0 947.2 1.6 88
2018-09-19 08:00:00 17.2 9 Nordeste 11 Nordeste 0 946.3 0.9 98
2018-09-19 07:00:00 17.5 0 Calma 3 Nordeste 0 945.7 0.2 96
2018-09-19 06:00:00 17.7 0 Calma 9 Nordeste 0 945.6 -0.2 93
2018-09-19 05:00:00 18 0 Calma 6 Nordeste 0 945.4 -0.8 91
2018-09-19 04:00:00 17.9 2 Nordeste 8 Sur 0 945.5 -0.6 91
2018-09-19 03:00:00 18.7 5 Sur 8 Sur 0 945.8 -0.4 88
2018-09-19 02:00:00 18.5 0 Calma 14 Nordeste 0 946.2 0.3 88
2018-09-19 01:00:00 19.3 8 Nordeste 16 Nordeste 0 946.1 0.7 86
2018-09-19 00:00:00 19.4 5 Nordeste 12 Nordeste 0 946.2 1.3 89
2018-09-18 23:00:00 19.9 0 Calma 5 Sudeste 0 945.9 1.5 88
2018-09-18 22:00:00 20 4 Nordeste 6 Nordeste 0 945.4 1.3 89
2018-09-18 21:00:00 19.8 0 Calma -- -- 0 944.9 1.4 86
2018-09-18 20:00:00 20.7 0 Calma 6 Este 0.1 944.4 1.1 82
2018-09-18 19:00:00 22.7 0 Calma 0 Calma 0 944.1 -0.2 89
2018-09-18 18:00:00 22.5 0 Calma 12 Nordeste 0 943.5 -1 91
2018-09-18 17:00:00 21.1 12 Nordeste 30 Sudeste 1.9 943.3 -1.3 88
2018-09-18 16:00:00 19.2 12 Sudeste 50 Noroeste 18.3 944.3 -0.8 91
2018-09-18 15:00:00 26.3 17 Nordeste 32 Norte 0 944.5 -0.8 47
2018-09-18 14:00:00 28.5 11 Sudoeste 20 Sudoeste 0 944.6 -0.7 47
2018-09-18 13:00:00 27.1 5 Oeste 13 Sudoeste 0 945.1 0.4 51
2018-09-18 12:00:00 25.7 4 Norte 9 Norte 0 945.3 1.4 57
2018-09-18 11:00:00 23.1 5 Norte 9 Norte 0 945.3 1.7 68
2018-09-18 10:00:00 21 0 Calma 5 Norte 0 944.7 1.6 83
2018-09-18 09:00:00 18.3 0 Calma 9 Nordeste 0 943.9 0.9 99
2018-09-18 08:00:00 16.6 0 Calma -- -- 0 943.6 0.7 99
2018-09-18 07:00:00 16.7 0 Calma 5 Norte 0 943.1 0.5 99
2018-09-18 06:00:00 16.9 3 Nordeste 6 Nordeste 0 943 0.1 99
2018-09-18 05:00:00 17.3 0 Calma 6 Sudeste 0 942.9 -0.3 99
2018-09-18 04:00:00 17.5 0 Calma 11 Nordeste 0 942.6 -0.9 99
2018-09-18 03:00:00 17.8 3 Nordeste 8 Nordeste 0 942.9 -0.9 99
2018-09-18 02:00:00 18.1 0 Calma 5 Sudoeste 0 943.2 -0.5 98
2018-09-18 01:00:00 18.7 4 Nordeste 12 Este 0 943.5 -0.4 94
2018-09-18 00:00:00 18.9 0 Calma 10 Nordeste 0 943.8 0.2 95
2018-09-17 23:00:00 19.2 0 Calma 7 Sur 0 943.7 0.5 92
2018-09-17 22:00:00 19.5 5 Nordeste 10 Nordeste 0 943.9 1 91
2018-09-17 21:00:00 19.6 0 Calma 7 Norte 0 943.6 1.1 95
2018-09-17 20:00:00 19.9 0 Calma 10 Norte 0 943.2 0.4 94
2018-09-17 19:00:00 20.2 7 Nordeste 11 Nordeste 0 942.9 -1.2 88
2018-09-17 18:00:00 21.6 3 Nordeste 25 Este 0.1 942.5 -2.1 82
2018-09-17 17:00:00 20.4 12 Este 29 Sudeste 0.5 942.8 -1.9 79
2018-09-17 16:00:00 21 19 Sudeste 37 Sudeste 0 944.1 -1.2 78
2018-09-17 15:00:00 24.1 22 Sudeste 40 Sudeste 0 944.6 -1.1 57
2018-09-17 14:00:00 29.7 5 Oeste 14 Noroeste 0 944.7 -0.9 47
2018-09-17 13:00:00 27.9 9 Oeste 17 Oeste 0 945.3 -0.3 51
2018-09-17 12:00:00 26.5 3 Norte 10 Nordeste 0 945.7 0.1 54
2018-09-17 11:00:00 24.4 4 Norte 9 Norte 0 945.6 0.3 66
2018-09-17 10:00:00 23.4 0 Calma 6 Nordeste 0 945.6 0.6 71
2018-09-17 09:00:00 20.5 0 Calma 8 Sudoeste 0 945.6 0.5 83
2018-09-17 08:00:00 18.1 0 Calma 6 Sudeste 0 945.3 -0.1 91
2018-09-17 07:00:00 19 0 Calma 6 Nordeste 0 945 -0.6 88
2018-09-17 06:00:00 19.1 0 Calma 6 Nordeste 0 945.1 -0.7 87
2018-09-17 05:00:00 20 0 Calma 7 Sudeste 0 945.4 -0.7 82
2018-09-17 04:00:00 21.1 0 Calma 11 Sudeste 0 945.6 -0.8 73
2018-09-17 03:00:00 22.8 3 Sudoeste 15 Este 0 945.8 -0.7 64
2018-09-17 02:00:00 22.8 9 Nordeste 25 Este 0 946.1 -0.7 67
2018-09-17 01:00:00 24.3 7 Este 14 Norte 0 946.4 -0.5 62
2018-09-17 00:00:00 24.3 0 Calma 15 Nordeste 0 946.5 -0.1 60
2018-09-16 23:00:00 24.2 8 Nordeste 12 Nordeste 0 946.8 0.6 59
2018-09-16 22:00:00 25.6 0 Calma 12 Norte 0 946.9 0.7 52
2018-09-16 21:00:00 26.7 3 Norte 21 Sudeste 0 946.6 0.7 46
2018-09-16 20:00:00 27.4 10 Sudeste 16 Sudeste 0 946.2 0.2 44
2018-09-16 19:00:00 30.1 9 Sur 17 Sudeste 0 946.2 0 39
2018-09-16 18:00:00 31 0 Calma 23 Sur 0 945.9 -1.2 39
2018-09-16 17:00:00 31.1 9 Sur 22 Sur 0 946 -1.6 39
2018-09-16 16:00:00 30.8 7 Oeste 18 Oeste 0 946.2 -1.9 39
2018-09-16 15:00:00 29.1 6 Oeste 13 Oeste 0 947.1 -1.4 43
2018-09-16 14:00:00 28.5 5 Noroeste 17 Oeste 0 947.6 -1.2 47
2018-09-16 13:00:00 26.9 3 Noroeste 13 Norte 0 948.1 -0.4 50
2018-09-16 12:00:00 25.3 5 Norte 14 Este 0 948.5 0.6 56
2018-09-16 11:00:00 24 5 Norte 11 Noroeste 0 948.8 1.3 64
2018-09-16 10:00:00 20.9 4 Norte 11 Norte 0 948.5 1.6 78
2018-09-16 09:00:00 18.6 0 Calma 8 Norte 0 947.9 1 90
2018-09-16 08:00:00 16.7 0 Calma -- -- 0 947.5 0.4 99
2018-09-16 07:00:00 16.5 0 Calma -- -- 0 946.9 -0.3 99
2018-09-16 06:00:00 16.9 0 Calma -- -- 0 946.9 -0.8 98
2018-09-16 05:00:00 17.4 0 Calma 7 Sur 0 947.1 -0.3 94
2018-09-16 04:00:00 18 3 Este 8 Nordeste 0 947.2 -0.7 92
2018-09-16 03:00:00 17.8 0 Calma 11 Nordeste 0 947.7 -0.3 92
2018-09-16 02:00:00 18.6 4 Sur 9 Nordeste 0 947.4 -0.5 86
2018-09-16 01:00:00 20.2 4 Sur 11 Sudeste 0 947.9 0.1 79
2018-09-16 00:00:00 20.5 6 Sudeste 10 Sudeste 0 948 0.8 75
2018-09-15 23:00:00 21.2 0 Calma 6 Sur 0 947.9 1.5 71
2018-09-15 22:00:00 21.5 0 Calma 9 Sudoeste 0 947.8 1.7 68
2018-09-15 21:00:00 22.3 5 Nordeste 11 Este 0 947.2 1.2 65
2018-09-15 20:00:00 23 5 Nordeste 16 Este 0 946.4 0.5 62
2018-09-15 19:00:00 24.4 5 Sudeste 24 Este 0 946.1 0.1 59
2018-09-15 18:00:00 24.9 11 Este 23 Este 0 946 -0.1 58
2018-09-15 17:00:00 25.4 6 Este 22 Este 0 945.9 -0.8 58
2018-09-15 16:00:00 24.5 8 Este 25 Sudeste 0 946 -0.9 61
2018-09-15 15:00:00 24.6 9 Este 22 Nordeste 0 946.1 -0.7 61
2018-09-15 14:00:00 23.6 9 Nordeste 23 Sudeste 0 946.7 0.1 66
2018-09-15 13:00:00 24 15 Nordeste 24 Nordeste 0 946.9 0.7 62
2018-09-15 12:00:00 24 13 Nordeste 21 Nordeste 0 946.8 1.1 64
2018-09-15 11:00:00 23.4 14 Nordeste 23 Nordeste 0 946.6 1.3 66
2018-09-15 10:00:00 22.2 8 Nordeste 13 Nordeste 0 946.2 1.5 73
2018-09-15 09:00:00 20.8 6 Nordeste 12 Nordeste 0 945.7 0.8 77
2018-09-15 08:00:00 19 0 Calma 13 Nordeste 0 945.3 0.7 84
2018-09-15 07:00:00 17.7 4 Sur 8 Norte 0 944.7 0 90
2018-09-15 06:00:00 18 0 Calma 7 Norte 0 944.9 -0.5 89
2018-09-15 05:00:00 17.9 0 Calma 7 Sur 0 944.6 -1 91
2018-09-15 04:00:00 18.3 0 Calma 6 Norte 0 944.7 -0.9 92
2018-09-15 03:00:00 18.8 0 Calma 7 Nordeste 0 945.4 -0.3 89
2018-09-15 02:00:00 20 4 Sudeste 7 Sur 0 945.6 -0.2 84
2018-09-15 01:00:00 19.9 5 Sur 10 Nordeste 0 945.6 0 84
2018-09-15 00:00:00 21.8 4 Sur 11 Este 0 945.7 0.8 75
2018-09-14 23:00:00 22 9 Sudeste 11 Sudeste 0 945.8 0.8 74
2018-09-14 22:00:00 22.8 2 Sudoeste 17 Sudeste 0 945.6 0.6 69
2018-09-14 21:00:00 24.3 9 Sudeste 16 Sudeste 0 944.9 0.5 65
2018-09-14 20:00:00 24.7 10 Sur 24 Sudoeste 0 945 0.5 63
2018-09-14 19:00:00 25.7 19 Sudoeste 34 Sudoeste 0 945 0.5 59
2018-09-14 18:00:00 29.6 7 Este 13 Este 0 944.4 -0.6 38
2018-09-14 17:00:00 30.3 8 Este 19 Sudeste 0 944.5 -1.2 39
2018-09-14 16:00:00 30.1 12 Sudeste 22 Nordeste 0 944.5 -2 38
2018-09-14 15:00:00 30.3 13 Nordeste 24 Nordeste 0 945 -1.8 41
2018-09-14 14:00:00 29.8 4 Norte 14 Noroeste 0 945.7 -1 48
2018-09-14 13:00:00 28.1 5 Oeste 12 Oeste 0 946.5 0.2 55
2018-09-14 12:00:00 26.5 0 Calma 7 Norte 0 946.8 0.9 62
2018-09-14 11:00:00 24.7 3 Noroeste 8 Noroeste 0 946.7 1 66
2018-09-14 10:00:00 23.2 0 Calma -- -- 0 946.3 0.7 72
2018-09-14 09:00:00 20.8 0 Calma -- -- 0 945.9 0.4 89
2018-09-14 08:00:00 19.5 0 Calma -- -- 0 945.7 0.1 91
2018-09-14 07:00:00 19.7 0 Calma 6 Sur 0 945.6 -0.4 87
2018-09-14 06:00:00 21.4 5 Sur 13 Sudeste 0 945.5 -0.8 81
2018-09-14 05:00:00 21.8 9 Sur 12 Sur 0 945.6 -1 78
2018-09-14 04:00:00 22.6 7 Sur 13 Sur 0 946 -0.6 74
2018-09-14 03:00:00 23.2 6 Sudoeste 23 Sudoeste 0 946.3 0.1 70
2018-09-14 02:00:00 24 14 Sudoeste 26 Oeste 0 946.6 0.8 66
2018-09-14 01:00:00 23.3 5 Sudoeste 12 Sudoeste 0 946.6 0.8 59
2018-09-14 00:00:00 23.1 3 Sudoeste 10 Sudoeste 0 946.2 0.6 56
2018-09-13 23:00:00 24.8 3 Sudeste 11 Sudeste 0 945.8 0.6 50
2018-09-13 22:00:00 25.9 0 Calma 15 Sudeste 0 945.8 0.5 44
2018-09-13 21:00:00 28.1 13 Sudeste 21 Sudeste 0 945.6 0.3 38
2018-09-13 20:00:00 29.6 12 Este 19 Sudeste 0 945.2 -0.3 36
2018-09-13 19:00:00 31.7 2 Norte 17 Norte 0 945.3 -0.8 33
2018-09-13 18:00:00 32.6 10 Norte 20 Nordeste 0 945.3 -1.4 32
2018-09-13 17:00:00 32.5 5 Nordeste 18 Este 0 945.5 -1.8 32
2018-09-13 16:00:00 32.4 9 Norte 20 Nordeste 0 946.1 -1.5 32
2018-09-13 15:00:00 31.8 4 Este 23 Nordeste 0 946.7 -1.7 32
2018-09-13 14:00:00 31 8 Nordeste 17 Nordeste 0 947.3 -1.4 36
2018-09-13 13:00:00 29.2 2 Noroeste 12 Oeste 0 947.6 -0.4 46
2018-09-13 12:00:00 26.9 4 Norte 13 Noroeste 0 948.4 0.7 55
2018-09-13 11:00:00 25.7 2 Nordeste 7 Norte 0 948.7 1.4 58
2018-09-13 10:00:00 23.3 0 Calma 5 Norte 0 948 0.8 73
2018-09-13 09:00:00 20 0 Calma -- -- 0 947.7 0.8 88
2018-09-13 08:00:00 17.9 0 Calma -- -- 0 947.3 0.2 94
2018-09-13 07:00:00 18.1 0 Calma -- -- 0 947.2 0 92
2018-09-13 06:00:00 18.4 0 Calma 4 Nordeste 0 946.9 -0.8 91
2018-09-13 05:00:00 18.7 4 Nordeste 6 Norte 0 947.1 -0.7 90
2018-09-13 04:00:00 19.4 2 Nordeste 9 Sur 0 947.2 -1 86
2018-09-13 03:00:00 20.3 5 Nordeste 8 Nordeste 0 947.7 -1.1 82
2018-09-13 02:00:00 20.7 0 Calma 8 Sur 0 947.8 -1.2 77
2018-09-13 01:00:00 21.3 3 Nordeste 6 Nordeste 0 948.2 -0.4 74
2018-09-13 00:00:00 22.5 0 Calma 6 Sudoeste 0 948.8 0.5 68
2018-09-12 23:00:00 23.7 4 Este 7 Este 0 949 1.1 62
2018-09-12 22:00:00 24.5 3 Sudeste 15 Sudoeste 0 948.6 0.6 59
2018-09-12 21:00:00 25.6 8 Sudeste 10 Sudeste 0 948.3 0.1 54
2018-09-12 20:00:00 26.5 6 Sur 9 Sur 0 947.9 -0.5 53
2018-09-12 19:00:00 27.9 4 Sudoeste 13 Sudoeste 0 948 -0.3 52
2018-09-12 18:00:00 28.6 7 Sudoeste 14 Oeste 0 948.2 -1.3 48
2018-09-12 17:00:00 28.6 8 Sudoeste 15 Sudoeste 0 948.4 -1.2 48
2018-09-12 16:00:00 28.5 7 Sudoeste 25 Sudoeste 0.1 948.3 -2.1 46
2018-09-12 15:00:00 29.1 9 Noroeste 15 Sudoeste 0 949.5 -1.3 43
2018-09-12 14:00:00 29.1 10 Oeste 18 Oeste 0 949.6 -1 44
2018-09-12 13:00:00 28.3 7 Sudoeste 16 Oeste 0 950.4 0.2 49
2018-09-12 12:00:00 26.8 5 Sudoeste 12 Sudoeste 0 950.8 1.4 55
2018-09-12 11:00:00 24.1 0 Calma 7 Oeste 0 950.6 1.6 65
2018-09-12 10:00:00 22 0 Calma 4 Nordeste 0 950.2 1.8 77
2018-09-12 09:00:00 20.4 0 Calma 7 Nordeste 0 949.4 1 87
2018-09-12 08:00:00 18.4 0 Calma 8 Nordeste 0 949 0.7 95
2018-09-12 07:00:00 18.1 0 Calma 5 Nordeste 0 948.4 0.1 96
2018-09-12 06:00:00 18 0 Calma 7 Norte 0 948.4 -0.2 95
2018-09-12 05:00:00 19 0 Calma 8 Nordeste 0 948.3 -0.5 91
2018-09-12 04:00:00 19.6 0 Calma 0 Calma 0 948.3 -0.7 88
2018-09-12 03:00:00 20 2 Este 6 Este 0 948.6 -0.5 85
2018-09-12 02:00:00 20.3 0 Calma 10 Sur 0 948.8 0 79
2018-09-12 01:00:00 21.4 7 Sur 8 Sur 0 949 0.3 74
2018-09-12 00:00:00 21.6 0 Calma 11 Nordeste 0 949.1 1.2 71
2018-09-11 23:00:00 23.5 9 Nordeste 17 Nordeste 0 948.8 1.3 65
2018-09-11 22:00:00 23.8 4 Noroeste 27 Sudeste 0 948.7 1.2 62
2018-09-11 21:00:00 25 13 Sudeste 25 Sudeste 0 947.9 0.5 59
2018-09-11 20:00:00 25.5 12 Este 24 Sudeste 0 947.5 -0.2 57
2018-09-11 19:00:00 26.8 14 Sudeste 26 Sudeste 0 947.5 -0.8 53
2018-09-11 18:00:00 29 10 Sur 27 Sudeste 0 947.4 -1.3 49
2018-09-11 17:00:00 28.3 7 Sudeste 24 Sudeste 0 947.7 -1.6 50
2018-09-11 16:00:00 28.1 10 Sudeste 27 Nordeste 0 948.3 -1.4 51
2018-09-11 15:00:00 28 5 Sudeste 24 Este 0 948.7 -1 50
2018-09-11 14:00:00 27.6 9 Sudeste 23 Sudeste 0 949.3 0 49
2018-09-11 13:00:00 27.4 10 Sudeste 21 Sudeste 0 949.7 0.9 50
2018-09-11 12:00:00 26.4 14 Sudeste 25 Sudeste 0 949.7 1.3 53
2018-09-11 11:00:00 24.4 15 Nordeste 25 Nordeste 0 949.3 0.8 59
2018-09-11 10:00:00 23.1 10 Nordeste 20 Nordeste 0 948.8 0.4 64
2018-09-11 09:00:00 20.2 13 Nordeste 21 Nordeste 0 948.4 0.3 74
2018-09-11 08:00:00 19.5 13 Nordeste 18 Nordeste 0 948.5 0.3 73
2018-09-11 07:00:00 19.8 12 Este 17 Este 0 948.4 0.1 72
2018-09-11 06:00:00 19.4 12 Nordeste 17 Nordeste 0 948.1 -0.4 77
2018-09-11 05:00:00 19.6 14 Nordeste 21 Nordeste 0 948.2 -0.4 76
2018-09-11 04:00:00 20 12 Nordeste 19 Este 0 948.3 -0.5 74
2018-09-11 03:00:00 20.8 7 Nordeste 17 Este 0 948.5 -0.5 71
2018-09-11 02:00:00 21.3 5 Nordeste 17 Este 0 948.6 -0.3 69
2018-09-11 01:00:00 21.2 7 Nordeste 16 Norte 0 948.8 0 69
2018-09-11 00:00:00 22.1 5 Noroeste 25 Sudeste 0 949 0.8 65
2018-09-10 23:00:00 23.5 15 Este 29 Este 0 948.9 1 59
2018-09-10 22:00:00 24.2 15 Este 30 Sudeste 0 948.8 1.1 56
2018-09-10 21:00:00 25 15 Sudeste 27 Este 0 948.2 0.8 51
2018-09-10 20:00:00 26 13 Sudeste 28 Este 0 947.9 0.4 48
2018-09-10 19:00:00 27.3 13 Este 23 Nordeste 0 947.7 0.1 45
2018-09-10 18:00:00 28.2 12 Nordeste 26 Este 0 947.4 -0.3 44
2018-09-10 17:00:00 28.2 9 Nordeste 27 Noroeste 0 947.5 -0.7 43
2018-09-10 16:00:00 28.7 5 Norte 22 Nordeste 0 947.6 -0.9 43
2018-09-10 15:00:00 27.4 13 Nordeste 25 Nordeste 0 947.7 -1.5 44
2018-09-10 14:00:00 26 12 Nordeste 28 Norte 0 948.2 -1.2 47
2018-09-10 13:00:00 24.7 13 Nordeste 26 Nordeste 0 948.5 -0.2 52
2018-09-10 12:00:00 23.4 13 Nordeste 24 Nordeste 0 949.2 1.3 59
2018-09-10 11:00:00 21.3 16 Nordeste 23 Nordeste 0 949.4 1.8 68
2018-09-10 10:00:00 19.6 15 Nordeste 23 Nordeste 0 948.7 1.5 74
2018-09-10 09:00:00 17.6 0 Calma 7 Nordeste 0 947.9 1.3 92
2018-09-10 08:00:00 15.1 5 Nordeste 7 Nordeste 0 947.6 1.3 98
2018-09-10 07:00:00 15.2 3 Sudeste 12 Nordeste 0 947.2 0.3 96
2018-09-10 06:00:00 15.5 8 Nordeste 12 Nordeste 0 946.6 -0.7 96
2018-09-10 05:00:00 15.7 4 Nordeste 10 Sudeste 0 946.3 -1.4 95
2018-09-10 04:00:00 16.7 8 Oeste 31 Este 0 946.9 -2.8 87
2018-09-10 03:00:00 18.1 17 Nordeste 51 Este 0 947.3 -0.6 76
2018-09-10 02:00:00 17.3 22 Este 40 Este 6.4 947.7 -0.2 82
2018-09-10 01:00:00 17.5 0 Calma 14 Sur 5.7 949.7 2.9 97
2018-09-10 00:00:00 17.9 6 Sur 22 Sur 1.4 947.9 1.4 96
2018-09-09 23:00:00 18.2 21 Sur 37 Sudoeste 0 947.9 2.2 91
2018-09-09 22:00:00 21.7 0 Calma 10 Sudeste 0 946.8 1.6 70
2018-09-09 21:00:00 21.9 3 Sur 9 Sudeste 0 946.5 1.3 68
2018-09-09 20:00:00 22.7 8 Sudeste 13 Noroeste 0 945.7 0.7 63
2018-09-09 19:00:00 25.2 2 Sur 17 Sudoeste 0 945.2 -0.2 56
2018-09-09 18:00:00 25.2 6 Oeste 11 Sudoeste 0 945.2 -0.7 55
2018-09-09 17:00:00 26.2 7 Este 12 Este 0 945 -1.2 48
2018-09-09 16:00:00 26.2 3 Norte 10 Norte 0 945.4 -1.1 49
2018-09-09 15:00:00 26 2 Noroeste 10 Oeste 0 945.9 -1.4 50
2018-09-09 14:00:00 24.9 3 Oeste 11 Sudoeste 0 946.2 -1.1 54
2018-09-09 13:00:00 23.8 5 Oeste 10 Oeste 0 946.5 0.1 56
2018-09-09 12:00:00 22.8 4 Oeste 13 Sudoeste 0 947.3 1.8 59
2018-09-09 11:00:00 20.5 4 Oeste 10 Oeste 0.1 947.3 2.3 70
2018-09-09 10:00:00 19.1 3 Norte 9 Nordeste 0 946.4 2 76
2018-09-09 09:00:00 16 8 Nordeste 14 Nordeste 0 945.5 0.8 97
2018-09-09 08:00:00 14.4 0 Calma 12 Nordeste 0 945 0 99
2018-09-09 07:00:00 14.6 6 Nordeste 17 Nordeste 0 944.4 -0.8 99
2018-09-09 06:00:00 14.8 4 Nordeste 13 Nordeste 0 944.7 -0.7 99
2018-09-09 05:00:00 15 3 Nordeste 15 Nordeste 0 945 -0.7 99
2018-09-09 04:00:00 14.8 5 Nordeste 12 Nordeste 0 945.2 -0.7 99
2018-09-09 03:00:00 15.1 0 Calma 12 Nordeste 0 945.4 0 99
2018-09-09 02:00:00 15.3 9 Nordeste 14 Nordeste 0 945.7 0.6 99
2018-09-09 01:00:00 15.4 0 Calma 6 Este 0 945.9 0.5 99
2018-09-09 00:00:00 16.2 2 Este 8 Este 0 945.4 0.8 99
2018-09-08 23:00:00 16.4 2 Nordeste 8 Este 0 945.1 0.7 99
2018-09-08 22:00:00 17.2 2 Nordeste 14 Este 0 945.4 0 99
2018-09-08 21:00:00 18.3 4 Noroeste 19 Oeste 0 944.6 -0.7 98
2018-09-08 20:00:00 19.1 3 Nordeste 22 Sudeste 0 944.4 -1 92
2018-09-08 19:00:00 19.6 12 Sur 26 Sudeste 0 945.4 0.5 84
2018-09-08 18:00:00 19.2 9 Este 15 Este 0.4 945.3 0.6 97
2018-09-08 17:00:00 20.2 9 Sudeste 13 Sudeste 0.3 945.4 1.2 92
2018-09-08 16:00:00 20.9 8 Sudeste 14 Sudoeste 0 944.9 0.6 85
2018-09-08 15:00:00 20.4 3 Sur 35 Sur 0 944.7 0 89
2018-09-08 14:00:00 22.2 14 Sur 40 Sudeste 0 944.2 -0.6 68
2018-09-08 13:00:00 22.1 8 Sur 28 Sudeste 0 944.3 0.8 70
2018-09-08 12:00:00 22.4 2 Este 26 Este 0 944.7 1.3 68
2018-09-08 11:00:00 21.9 11 Sur 29 Sur 0 944.8 0.9 68
2018-09-08 10:00:00 20.2 7 Nordeste 19 Nordeste 0 943.5 0.5 84
2018-09-08 09:00:00 18.6 5 Oeste 48 Sudeste 1 943.4 1.5 92
2018-09-08 08:00:00 18.8 24 Sur 43 Sur 0.3 943.9 1.4 84
2018-09-08 07:00:00 19.6 0 Calma 9 Sur 0 943 0.2 76
2018-09-08 06:00:00 19.7 2 Nordeste 10 Sur 0 941.9 -0.5 76
2018-09-08 05:00:00 20 0 Calma 13 Sur 0 942.5 0 72
2018-09-08 04:00:00 20.8 5 Sudoeste 15 Sudoeste 0 942.8 -0.2 68
2018-09-08 03:00:00 22.2 2 Nordeste 14 Este 0 942.4 -0.8 64
2018-09-08 02:00:00 24.3 4 Este 22 Sudeste 0 942.5 -0.4 59
2018-09-08 01:00:00 24.8 9 Sudeste 20 Sudeste 0 943 0.5 59
2018-09-08 00:00:00 25 2 Este 21 Sudeste 0 943.2 1.5 60
2018-09-07 23:00:00 25.6 9 Sudeste 24 Sudeste 0 942.9 1.8 59
2018-09-07 22:00:00 26.5 14 Sudeste 25 Sudeste 0 942.5 1.7 53
2018-09-07 21:00:00 26.8 5 Sur 17 Sudeste 0 941.7 1.2 46
2018-09-07 20:00:00 28.5 5 Sur 10 Oeste 0 941.1 0.9 39
2018-09-07 19:00:00 30.7 8 Oeste 16 Oeste 0 940.8 0.3 37
2018-09-07 18:00:00 31.3 12 Oeste 29 Oeste 0 940.5 -1.1 36
2018-09-07 17:00:00 31.3 14 Oeste 24 Oeste 0 940.2 -1.7 36
2018-09-07 16:00:00 30.9 8 Oeste 26 Sudoeste 0 940.5 -1.7 37
2018-09-07 15:00:00 29.9 6 Oeste 22 Oeste 0 941.6 -1.3 41
2018-09-07 14:00:00 29.2 8 Oeste 28 Oeste 0 941.9 -0.9 48
2018-09-07 13:00:00 28.3 8 Oeste 18 Sudoeste 0 942.2 -0.5 50
2018-09-07 12:00:00 25.9 5 Sudoeste 17 Sudoeste 0 942.9 0.6 60
2018-09-07 11:00:00 23.3 4 Oeste 11 Sudoeste 0 942.8 0.9 68
2018-09-07 10:00:00 21.7 4 Oeste 12 Sudoeste 0 942.7 1.2 73
2018-09-07 09:00:00 20.1 0 Calma 6 Nordeste 0 942.3 0.8 76
2018-09-07 08:00:00 17.6 0 Calma 5 Norte 0 941.9 0.2 81
2018-09-07 07:00:00 18 0 Calma 7 Norte 0 941.5 -0.1 76
2018-09-07 06:00:00 18.5 0 Calma 5 Nordeste 0 941.5 -0.4 71
2018-09-07 05:00:00 19.6 0 Calma 14 Sur 0 941.7 -0.7 65
2018-09-07 04:00:00 19.8 0 Calma 7 Sudeste 0 941.6 -0.8 62
2018-09-07 03:00:00 20.8 0 Calma -- -- 0 941.9 -0.8 59
2018-09-07 02:00:00 21.2 0 Calma -- -- 0 942.4 -0.4 57
2018-09-07 01:00:00 21.7 0 Calma -- -- 0 942.4 -0.3 54
2018-09-07 00:00:00 22.7 0 Calma 9 Sur 0 942.7 0.6 52
2018-09-06 23:00:00 24.4 8 Sur 12 Sudoeste 0 942.8 1.2 49
2018-09-06 22:00:00 25 6 Sur 14 Sur 0 942.7 1.3 45
2018-09-06 21:00:00 25.3 6 Sur 13 Sur 0 942.1 0.7 44
2018-09-06 20:00:00 26.4 7 Sur 17 Oeste 0 941.6 0.1 44
2018-09-06 19:00:00 28.6 6 Sudoeste 20 Sudoeste 0 941.4 -0.5 43
2018-09-06 18:00:00 29.3 6 Sudoeste 21 Sudoeste 0 941.4 -0.7 43
2018-09-06 17:00:00 28.9 6 Oeste 19 Oeste 0 941.5 -1.1 44
2018-09-06 16:00:00 28.6 10 Sudoeste 22 Sudoeste 0 941.9 -0.9 44
2018-09-06 15:00:00 27.4 6 Sudoeste 23 Oeste 0 942.1 -1.1 44
2018-09-06 14:00:00 26.6 9 Oeste 32 Noroeste 0 942.6 -0.6 48
2018-09-06 13:00:00 26 6 Sudoeste 14 Sudoeste 0 942.8 -0.4 56
2018-09-06 12:00:00 24.4 2 Sudeste 10 Noroeste 0 943.2 0.3 68
2018-09-06 11:00:00 21.7 4 Norte 10 Noroeste 0 943.2 0.9 78
2018-09-06 10:00:00 19.9 4 Nordeste 8 Nordeste 0 943.2 1.3 84
2018-09-06 09:00:00 18.7 0 Calma 6 Nordeste 0 942.9 1.2 89
2018-09-06 08:00:00 16.4 0 Calma 10 Sur 0 942.3 0.5 93
2018-09-06 07:00:00 16.8 6 Sur 8 Sur 0 941.9 -0.1 94
2018-09-06 06:00:00 16.4 0 Calma 8 Sudoeste 0 941.7 -0.6 89
2018-09-06 05:00:00 17.2 0 Calma 10 Sur 0 941.8 -1.1 84
2018-09-06 04:00:00 18.3 5 Sur 9 Sur 0 942 -1.1 79
2018-09-06 03:00:00 19.9 6 Sur 12 Sur 0 942.3 -0.9 72
2018-09-06 02:00:00 20.2 2 Sur 17 Sur 0 942.9 -0.3 70
2018-09-06 01:00:00 21.5 11 Sur 18 Sur 0 943.1 0 66
2018-09-06 00:00:00 21.6 9 Sur 18 Sur 0 943.2 0.7 65
2018-09-05 23:00:00 22.3 10 Sur 14 Sudoeste 0 943.2 1.2 61
2018-09-05 22:00:00 22.8 10 Sudoeste 16 Sudoeste 0 943.1 1.1 59
2018-09-05 21:00:00 23.6 11 Sudoeste 20 Sudoeste 0 942.5 0.4 56
2018-09-05 20:00:00 25.2 14 Sudoeste 25 Sudoeste 0 942 -0.3 52
2018-09-05 19:00:00 27 15 Sudoeste 28 Sudoeste 0 942 -0.6 51
2018-09-05 18:00:00 27.9 15 Sudoeste 28 Oeste 0 942.1 -0.9 49
2018-09-05 17:00:00 28.4 12 Oeste 32 Sudoeste 0 942.3 -1 49
2018-09-05 16:00:00 28.3 15 Sudoeste 28 Sudoeste 0 942.6 -1.3 50
2018-09-05 15:00:00 26.6 14 Sudoeste 29 Sudoeste 0 943 -1.1 54
2018-09-05 14:00:00 25.2 11 Sudoeste 25 Sudoeste 0 943.3 -1 62
2018-09-05 13:00:00 24.2 13 Sudoeste 24 Sudoeste 0 943.9 -0.2 68
2018-09-05 12:00:00 22.6 10 Oeste 22 Oeste 0 944.1 0.2 76
2018-09-05 11:00:00 20.9 12 Oeste 21 Oeste 0 944.3 0.9 82
2018-09-05 10:00:00 19.6 11 Oeste 20 Oeste 0 944.1 1 89
2018-09-05 09:00:00 18.4 11 Sudoeste 18 Sudoeste 0 943.9 1.5 92
2018-09-05 08:00:00 17.5 6 Sudoeste 12 Sudoeste 0 943.4 0.9 93
2018-09-05 07:00:00 17.8 6 Sur 10 Sur 0 943.1 0.8 90
2018-09-05 06:00:00 17.9 5 Sur 9 Sudoeste 0 942.4 0 85
2018-09-05 05:00:00 19.3 5 Sudoeste 15 Sur 0 942.5 -0.3 78
2018-09-05 04:00:00 20 11 Sur 15 Sur 0 942.3 -0.5 74
2018-09-05 03:00:00 21 7 Sur 17 Sur 0 942.4 -0.2 71
2018-09-05 02:00:00 21.8 10 Sur 17 Sudoeste 0 942.8 0.3 68
2018-09-05 01:00:00 22.5 10 Sur 17 Sur 0 942.8 0.9 65
2018-09-05 00:00:00 23.3 12 Sur 20 Sur 0 942.6 1.5 61
2018-09-04 23:00:00 24.1 11 Sur 17 Sur 0 942.5 1.8 57
2018-09-04 22:00:00 24.9 12 Sur 15 Sur 0 941.9 1.4 55
2018-09-04 21:00:00 25.2 8 Sur 15 Sudoeste 0 941.1 0.7 53
2018-09-04 20:00:00 27 8 Sudoeste 22 Sudoeste 0 940.7 1 47
2018-09-04 19:00:00 29.6 16 Oeste 26 Oeste 0 940.5 -0.2 43
2018-09-04 18:00:00 29.9 17 Sudoeste 27 Sudoeste 0 940.4 -0.7 42
2018-09-04 17:00:00 31 10 Oeste 25 Sudoeste 0 939.7 -1.8 41
2018-09-04 16:00:00 30.4 12 Oeste 27 Sudoeste 0 940.7 -1.1 43
2018-09-04 15:00:00 29.1 15 Sudoeste 30 Oeste 0 941.1 -0.8 44
2018-09-04 14:00:00 27.8 12 Sudoeste 25 Oeste 0 941.5 -0.7 54
2018-09-04 13:00:00 26 9 Oeste 20 Oeste 0 941.8 0 67
2018-09-04 12:00:00 23.8 6 Oeste 15 Oeste 0 941.9 0.3 74
2018-09-04 11:00:00 22 6 Oeste 14 Oeste 0 942.2 1.1 82
2018-09-04 10:00:00 20.1 8 Sudoeste 19 Oeste 0 941.8 0.9 89
2018-09-04 09:00:00 19.2 6 Sudoeste 11 Sudoeste 0 941.6 0.8 92
2018-09-04 08:00:00 17.7 4 Sur 9 Sur 0 941.1 0.3 95
2018-09-04 07:00:00 17.3 0 Calma -- -- 0 940.9 0.1 93
2018-09-04 06:00:00 18.2 0 Calma 7 Sudoeste 0 940.8 -0.4 89
2018-09-04 05:00:00 19.5 6 Sur 13 Sudoeste 0 940.8 -0.8 82
2018-09-04 04:00:00 20.1 8 Sur 15 Sudoeste 0 940.8 -0.9 80
2018-09-04 03:00:00 21 9 Sur 17 Sudoeste 0 941.2 -0.8 79
2018-09-04 02:00:00 21.8 9 Sur 15 Sur 0 941.6 -0.4 75
2018-09-04 01:00:00 22.7 9 Sudoeste 20 Sudoeste 0 941.7 0.4 72
2018-09-04 00:00:00 24.1 12 Sudoeste 27 Sudoeste 0 942 1.6 66
2018-09-03 23:00:00 25.4 9 Sudoeste 23 Sur 0 942 2.4 60
2018-09-03 22:00:00 26.7 15 Sudoeste 27 Sur 0 941.3 1.8 57
2018-09-03 21:00:00 28.3 10 Sur 27 Sudeste 0 940.4 1 52
2018-09-03 20:00:00 28.9 13 Sudeste 25 Sur 0 939.6 0 50
2018-09-03 19:00:00 31.1 10 Sur 28 Sudeste 0 939.5 -0.9 45
2018-09-03 18:00:00 32.8 11 Oeste 27 Sudoeste 0 939.4 -1.4 40
2018-09-03 17:00:00 33.8 14 Sudoeste 26 Oeste 0 939.6 -0.9 40
2018-09-03 16:00:00 33.5 9 Sudoeste 23 Oeste 0 940.4 -0.7 40
2018-09-03 15:00:00 31.7 12 Oeste 26 Sudoeste 0 940.8 -1.3 42
2018-09-03 14:00:00 31.3 9 Oeste 18 Oeste 0 940.5 -1.9 57
2018-09-03 13:00:00 29.9 0 Calma 9 Norte 0 941.1 -1.6 65
2018-09-03 12:00:00 27.2 3 Noroeste 9 Noroeste 0 942.1 -0.7 71
2018-09-03 11:00:00 25.3 5 Norte 9 Norte 0 942.4 -0.2 79
2018-09-03 10:00:00 24 2 Oeste 9 Oeste 0 942.7 -0.2 87
2018-09-03 09:00:00 22 4 Oeste 13 Sudoeste 0 942.8 0.6 94
2018-09-03 08:00:00 22 11 Sudoeste 21 Sudoeste 0 942.6 1.2 90
2018-09-03 07:00:00 22.5 11 Sudoeste 30 Sudoeste 0 942.9 1.4 82
2018-09-03 06:00:00 24.2 12 Sudoeste 26 Sudoeste 0 942.2 0.4 73
2018-09-03 05:00:00 24.2 0 Calma 9 Oeste 0 941.4 -0.7 62
2018-09-03 04:00:00 24.9 3 Sudeste 7 Este 0 941.5 -0.8 56
2018-09-03 03:00:00 24.9 0 Calma 4 Nordeste 0 941.8 -0.1 54
2018-09-03 02:00:00 25.9 0 Calma 12 Sudeste 0 942.1 0.2 51
2018-09-03 01:00:00 26.3 8 Sur 11 Sur 0 942.3 0.3 50
2018-09-03 00:00:00 28 0 Calma 6 Sudoeste 0 941.9 0 46
2018-09-02 23:00:00 28.9 3 Sudeste 8 Sudeste 0 941.9 0 44
2018-09-02 22:00:00 31.3 6 Nordeste 15 Sudeste 0 942 -0.2 41
2018-09-02 21:00:00 32.6 11 Sudeste 16 Sudeste 0 941.9 -0.6 40
2018-09-02 20:00:00 33.2 9 Sur 14 Sudoeste 0 941.9 -0.8 39
2018-09-02 19:00:00 35.7 9 Sur 16 Sur 0 942.2 -1 37
2018-09-02 18:00:00 36.9 7 Sudoeste 17 Oeste 0 942.5 -1.4 35
2018-09-02 17:00:00 36.7 9 Sudoeste 19 Sudoeste 0 942.7 -1.4 38
2018-09-02 16:00:00 35.6 9 Oeste 21 Oeste 0 943.2 -1.9 41
2018-09-02 15:00:00 35 10 Oeste 21 Sudoeste 0 943.9 -1.6 41
2018-09-02 14:00:00 34.4 10 Sudoeste 21 Oeste 0 944.1 -1.4 43
2018-09-02 13:00:00 32.5 8 Sudoeste 17 Sudoeste 0 945.1 0 49
2018-09-02 12:00:00 31.5 3 Oeste 11 Sudoeste 0 945.5 1.2 56
2018-09-02 11:00:00 28.7 3 Noroeste 6 Noroeste 0 945.5 1.1 62
2018-09-02 10:00:00 26.4 0 Calma 13 Nordeste 0 945.1 1.3 69
2018-09-02 09:00:00 23.4 6 Nordeste 10 Nordeste 0 944.3 0.7 77
2018-09-02 08:00:00 21.8 0 Calma 8 Sur 0 944.4 0.7 76
2018-09-02 07:00:00 -- -- -- -- -- -- -- -- --
2018-09-02 06:00:00 -- -- -- -- -- -- -- -- --
2018-09-02 05:00:00 -- -- -- -- -- -- -- -- --
2018-09-02 04:00:00 -- -- -- -- -- -- -- -- --
2018-09-02 03:00:00 -- -- -- -- -- -- -- -- --
2018-09-02 02:00:00 -- -- -- -- -- -- -- -- --
2018-09-02 01:00:00 -- -- -- -- -- -- -- -- --
2018-09-02 00:00:00 -- -- -- -- -- -- -- -- --
2018-09-01 23:00:00 -- -- -- -- -- -- -- -- --
2018-09-01 22:00:00 -- -- -- -- -- -- -- -- --
2018-09-01 21:00:00 -- -- -- -- -- -- -- -- --
2018-09-01 20:00:00 -- -- -- -- -- -- -- -- --
2018-09-01 19:00:00 -- -- -- -- -- -- -- -- --
2018-09-01 18:00:00 -- -- -- -- -- -- -- -- --
2018-09-01 17:00:00 -- -- -- -- -- -- -- -- --
2018-09-01 16:00:00 -- -- -- -- -- -- -- -- --
2018-09-01 15:00:00 -- -- -- -- -- -- -- -- --
2018-09-01 14:00:00 -- -- -- -- -- -- -- -- --
2018-09-01 13:00:00 -- -- -- -- -- -- -- -- --
2018-09-01 12:00:00 -- -- -- -- -- -- -- -- --
2018-09-01 11:00:00 -- -- -- -- -- -- -- -- --
2018-09-01 10:00:00 -- -- -- -- -- -- -- -- --
2018-09-01 09:00:00 -- -- -- -- -- -- -- -- --
2018-09-01 08:00:00 -- -- -- -- -- -- -- -- --
2018-09-01 07:00:00 -- -- -- -- -- -- -- -- --
2018-09-01 06:00:00 -- -- -- -- -- -- -- -- --
2018-09-01 05:00:00 -- -- -- -- -- -- -- -- --
2018-09-01 04:00:00 -- -- -- -- -- -- -- -- --
2018-09-01 03:00:00 -- -- -- -- -- -- -- -- --
2018-09-01 02:00:00 -- -- -- -- -- -- -- -- --
2018-09-01 01:00:00 -- -- -- -- -- -- -- -- --
2018-09-01 00:00:00 -- -- -- -- -- -- -- -- --
2018-08-31 23:00:00 -- -- -- -- -- -- -- -- --
2018-08-31 22:00:00 -- -- -- -- -- -- -- -- --
2018-08-31 21:00:00 -- -- -- -- -- -- -- -- --
2018-08-31 20:00:00 -- -- -- -- -- -- -- -- --
2018-08-31 19:00:00 -- -- -- -- -- -- -- -- --
2018-08-31 18:00:00 -- -- -- -- -- -- -- -- --
2018-08-31 17:00:00 -- -- -- -- -- -- -- -- --
2018-08-31 16:00:00 -- -- -- -- -- -- -- -- --
2018-08-31 15:00:00 -- -- -- -- -- -- -- -- --
2018-08-31 14:00:00 -- -- -- -- -- -- -- -- --
2018-08-31 13:00:00 -- -- -- -- -- -- -- -- --
2018-08-31 12:00:00 -- -- -- -- -- -- -- -- --
2018-08-31 11:00:00 -- -- -- -- -- -- -- -- --
2018-08-31 10:00:00 -- -- -- -- -- -- -- -- --
2018-08-31 09:00:00 -- -- -- -- -- -- -- -- --
2018-08-31 08:00:00 -- -- -- -- -- -- -- -- --
2018-08-31 07:00:00 -- -- -- -- -- -- -- -- --
2018-08-31 06:00:00 -- -- -- -- -- -- -- -- --
2018-08-31 05:00:00 -- -- -- -- -- -- -- -- --
2018-08-31 04:00:00 -- -- -- -- -- -- -- -- --
2018-08-31 03:00:00 -- -- -- -- -- -- -- -- --
2018-08-31 02:00:00 -- -- -- -- -- -- -- -- --
2018-08-31 01:00:00 -- -- -- -- -- -- -- -- --
2018-08-31 00:00:00 -- -- -- -- -- -- -- -- --
2018-08-30 23:00:00 -- -- -- -- -- -- -- -- --
2018-08-30 22:00:00 -- -- -- -- -- -- -- -- --
2018-08-30 21:00:00 -- -- -- -- -- -- -- -- --
2018-08-30 20:00:00 -- -- -- -- -- -- -- -- --
2018-08-30 19:00:00 -- -- -- -- -- -- -- -- --
2018-08-30 18:00:00 -- -- -- -- -- -- -- -- --
2018-08-30 17:00:00 -- -- -- -- -- -- -- -- --
2018-08-30 16:00:00 -- -- -- -- -- -- -- -- --
2018-08-30 15:00:00 -- -- -- -- -- -- -- -- --
2018-08-30 14:00:00 -- -- -- -- -- -- -- -- --
2018-08-30 13:00:00 -- -- -- -- -- -- -- -- --
2018-08-30 12:00:00 -- -- -- -- -- -- -- -- --
2018-08-30 11:00:00 -- -- -- -- -- -- -- -- --
2018-08-30 10:00:00 -- -- -- -- -- -- -- -- --
2018-08-30 09:00:00 -- -- -- -- -- -- -- -- --
2018-08-30 08:00:00 20.1 0 Calma 7 Nordeste 0 945.6 0.3 71
2018-08-30 07:00:00 20.8 5 Nordeste 7 Este 0 945.5 0.5 68
2018-08-30 06:00:00 21.5 0 Calma 10 Sudeste 0 945.4 0.2 62
2018-08-30 05:00:00 23.7 9 Sur 14 Sur 0 945.3 0 57
2018-08-30 04:00:00 24.4 10 Sur 17 Sur 0 945 -0.6 56
2018-08-30 03:00:00 23.5 7 Sudoeste 16 Sudeste 0 945.2 -0.2 57
2018-08-30 02:00:00 25.2 6 Sur 21 Sudeste 0 945.3 0.1 54
2018-08-30 01:00:00 26.6 13 Sudeste 18 Sudeste 0 945.6 0.6 47
2018-08-30 00:00:00 27.8 13 Sudeste 21 Sudeste 0 945.4 0.9 46
2018-08-29 23:00:00 27.1 9 Sur 15 Sur 0 945.2 1.5 45
2018-08-29 22:00:00 28.7 9 Sur 19 Sur 0 945 1.5 44
2018-08-29 21:00:00 29.7 11 Sur 18 Sur 0 944.5 1.1 41
2018-08-29 20:00:00 32 5 Sudoeste 15 Sudoeste 0 943.7 -0.1 35
2018-08-29 19:00:00 33.7 9 Oeste 24 Oeste 0 943.5 0 32
2018-08-29 18:00:00 33.7 12 Oeste 24 Sudoeste 0 943.4 -0.8 34
2018-08-29 17:00:00 34.1 13 Oeste 27 Sudoeste 0 943.8 -1 32
2018-08-29 16:00:00 34 10 Oeste 27 Oeste 0 943.5 -1.6 38
2018-08-29 15:00:00 32.6 13 Oeste 26 Oeste 0 944.2 -1.5 44
2018-08-29 14:00:00 31.8 6 Oeste 17 Oeste 0 944.8 -0.9 48
2018-08-29 13:00:00 30.2 4 Oeste 16 Oeste 0 945.1 -0.5 55
2018-08-29 12:00:00 28.2 7 Oeste 17 Sudoeste 0 945.7 0.5 60
2018-08-29 11:00:00 26.4 5 Oeste 13 Oeste 0 945.7 0.6 65
2018-08-29 10:00:00 24.5 6 Oeste 14 Oeste 0 945.6 0.7 68
2018-08-29 09:00:00 23.8 6 Sudoeste 11 Sudoeste 0 945.2 0.6 70
2018-08-29 08:00:00 22 9 Sur 13 Sur 0 945.1 0.3 74
2018-08-29 07:00:00 22.4 8 Sur 14 Sur 0 944.9 0 74
2018-08-29 06:00:00 22.9 7 Sur 16 Sudoeste 0 944.6 -0.5 71
2018-08-29 05:00:00 23.6 8 Sur 12 Sur 0 944.8 -0.2 68
2018-08-29 04:00:00 24.9 7 Sur 26 Sudoeste 0 944.9 0.3 64
2018-08-29 03:00:00 -- -- -- -- -- -- -- -- --
2018-08-29 02:00:00 -- -- -- -- -- -- -- -- --
2018-08-29 01:00:00 -- -- -- -- -- -- -- -- --
2018-08-29 00:00:00 -- -- -- -- -- -- -- -- --
2018-08-28 23:00:00 -- -- -- -- -- -- -- -- --
2018-08-28 22:00:00 -- -- -- -- -- -- -- -- --
2018-08-28 21:00:00 -- -- -- -- -- -- -- -- --
2018-08-28 20:00:00 33.1 8 Oeste 19 Oeste 0 942.4 -0.5 43
2018-08-28 19:00:00 35.3 12 Oeste 22 Oeste 0 942.1 -1.6 41
2018-08-28 18:00:00 36.4 10 Oeste 24 Oeste 0 942.4 -2.2 41
2018-08-28 17:00:00 36 13 Oeste 27 Sudoeste 0 942.9 -2 41
2018-08-28 16:00:00 36 12 Sudoeste 23 Sudoeste 0 943.7 -1.7 41
2018-08-28 15:00:00 34.9 9 Oeste 19 Oeste 0 944.6 -1.1 46
2018-08-28 14:00:00 33.3 8 Oeste 19 Oeste 0 944.9 -0.9 50
2018-08-28 13:00:00 32.1 6 Noroeste 15 Oeste 0 945.4 0.2 51
2018-08-28 12:00:00 30.3 9 Oeste 16 Oeste 0 945.7 1 56
2018-08-28 11:00:00 28.5 8 Oeste 17 Oeste 0 945.8 1.5 62
2018-08-28 10:00:00 26.3 3 Sur 5 Sur 0 945.2 1.1 67
2018-08-28 09:00:00 24.8 0 Calma 4 Noroeste 0 944.7 1 70
2018-08-28 08:00:00 24.2 0 Calma 5 Este 0 944.3 0.4 68
2018-08-28 07:00:00 24.8 0 Calma 5 Este 0 944.1 0.2 65
2018-08-28 06:00:00 25.5 0 Calma 8 Sudeste 0 943.7 -0.6 63
2018-08-28 05:00:00 25.9 0 Calma 5 Noroeste 0 943.9 -0.5 61
2018-08-28 04:00:00 26.9 6 Sudoeste 13 Sudoeste 0 943.9 0 58
2018-08-28 03:00:00 27.4 5 Sur 17 Sur 0 944.3 1.1 56
2018-08-28 02:00:00 28 10 Sur 14 Sur 0 944.4 1.1 47
2018-08-28 01:00:00 29.6 9 Sudoeste 19 Este 0 943.9 0 42
2018-08-28 00:00:00 32.3 6 Este 35 Este 0 943.2 -0.6 38
2018-08-27 23:00:00 32.4 14 Sudeste 24 Este 0 943.3 0.8 38
2018-08-27 22:00:00 32.1 13 Sudeste 27 Sur 0 943.9 1.4 38
2018-08-27 21:00:00 32.7 3 Nordeste 12 Sur 0 943.8 1.5 37
2018-08-27 20:00:00 34.5 8 Sur 11 Sur 0 942.5 -0.2 34
2018-08-27 19:00:00 37 5 Oeste 11 Oeste 0 942.5 -0.6 32
2018-08-27 18:00:00 38.3 8 Sudoeste 18 Sudoeste 0 942.3 -1 31
2018-08-27 17:00:00 38.4 11 Sudoeste 28 Sudoeste 0 942.7 -0.7 31
2018-08-27 16:00:00 38.2 13 Sudoeste 28 Sudoeste 0 943.1 -0.7 32
2018-08-27 15:00:00 37.6 7 Sudoeste 18 Oeste 0 943.3 -0.1 34
2018-08-27 14:00:00 37 8 Oeste 19 Oeste 0 943.4 0.1 35
2018-08-27 13:00:00 35.1 5 Oeste 15 Sudoeste 0 943.8 1.1 38
2018-08-27 12:00:00 32.8 4 Oeste 9 Oeste 0 943.4 1.3 46
2018-08-27 11:00:00 29.8 5 Norte 10 Nordeste 0 943.3 1.2 50
2018-08-27 10:00:00 26.4 3 Este 10 Nordeste 0 942.7 0.6 56
2018-08-27 09:00:00 23.3 4 Nordeste 9 Nordeste 0 942.1 0.1 62
2018-08-27 08:00:00 18.9 3 Nordeste 10 Nordeste 0 942.1 -0.2 66
2018-08-27 07:00:00 18.6 0 Calma 8 Nordeste 0 942.1 -0.4 62
2018-08-27 06:00:00 19.4 0 Calma 3 Nordeste 0 942 -0.7 59
2018-08-27 05:00:00 20 0 Calma -- -- 0 942.3 -0.7 57
2018-08-27 04:00:00 21.1 0 Calma 6 Nordeste 0 942.5 -0.6 54
2018-08-27 03:00:00 21.9 4 Nordeste 6 Nordeste 0 942.7 -0.5 51
2018-08-27 02:00:00 22.9 0 Calma 5 Nordeste 0 943 0.1 47
2018-08-27 01:00:00 24.5 0 Calma 6 Sudeste 0 943.1 0.1 44
2018-08-27 00:00:00 25.9 0 Calma 8 Norte 0 943.2 1 42
2018-08-26 23:00:00 28.2 0 Calma 14 Sur 0 942.9 0.8 38
2018-08-26 22:00:00 30.9 10 Sur 19 Sur 0 943 1.1 35
2018-08-26 21:00:00 31.4 13 Sur 18 Sur 0 942.2 0.3 35
2018-08-26 20:00:00 33.4 10 Sudoeste 24 Sudoeste 0 942.1 -0.1 33
2018-08-26 19:00:00 35.1 17 Sudoeste 28 Sudoeste 0 941.9 -0.7 32
2018-08-26 18:00:00 36 15 Sudoeste 30 Sudoeste 0 941.9 -1.3 32
2018-08-26 17:00:00 36.1 12 Sudoeste 32 Sudoeste 0 942.2 -1.3 32
2018-08-26 16:00:00 35.4 13 Oeste 32 Noroeste 0 942.6 -1.2 34
2018-08-26 15:00:00 34.8 13 Oeste 28 Sudoeste 0 943.2 -0.9 36
2018-08-26 14:00:00 34.2 14 Sudoeste 33 Sudoeste 0 943.5 -0.5 38
2018-08-26 13:00:00 32.6 8 Sudoeste 15 Oeste 0 943.8 0.4 45
2018-08-26 12:00:00 30.4 4 Noroeste 12 Oeste 0 944.1 1.3 50
2018-08-26 11:00:00 28.2 3 Nordeste 8 Nordeste 0 944 1.8 53
2018-08-26 10:00:00 24.9 0 Calma 5 Noroeste 0 943.4 1.7 61
2018-08-26 09:00:00 22.3 0 Calma 3 Nordeste 0 942.8 1.4 64
2018-08-26 08:00:00 18.8 4 Nordeste 6 Nordeste 0 942.2 0.8 68
2018-08-26 07:00:00 19 0 Calma 5 Sudeste 0 941.7 0.1 64
2018-08-26 06:00:00 19.9 0 Calma -- -- 0 941.4 -0.6 60
2018-08-26 05:00:00 20.5 0 Calma 5 Sudoeste 0 941.4 -0.8 58
2018-08-26 04:00:00 21.9 0 Calma 5 Este 0 941.6 -0.7 54
2018-08-26 03:00:00 22.4 2 Sudeste 8 Nordeste 0 942 -0.2 53
2018-08-26 02:00:00 23.8 4 Sudeste 11 Nordeste 0 942.2 -0.3 50
2018-08-26 01:00:00 25.4 0 Calma 9 Nordeste 0 942.3 0.7 47
2018-08-26 00:00:00 27.7 3 Este 14 Sudeste 0 942.2 1.7 43
2018-08-25 23:00:00 28.9 10 Nordeste 19 Nordeste 0 942.5 1.7 40
2018-08-25 22:00:00 30.8 10 Sur 16 Sur 0 941.6 0.8 38
2018-08-25 21:00:00 31.2 12 Sur 17 Sur 0 940.5 -0.5 36
2018-08-25 20:00:00 32.8 10 Sudoeste 19 Sudoeste 0 940.8 -0.5 35
2018-08-25 19:00:00 34.5 10 Oeste 21 Sudoeste 0 940.8 -0.9 35
2018-08-25 18:00:00 35 11 Sudoeste 23 Oeste 0 941 -1.4 34
2018-08-25 17:00:00 35.6 13 Oeste 28 Oeste 0 941.3 -1.6 35
2018-08-25 16:00:00 35 13 Sudoeste 25 Sudoeste 0 941.7 -1.7 37
2018-08-25 15:00:00 34 5 Norte 27 Sudoeste 0 942.4 -1.8 38
2018-08-25 14:00:00 34.2 10 Sudoeste 21 Oeste 0 942.9 -1.3 39
2018-08-25 13:00:00 31.9 10 Oeste 18 Oeste 0 943.4 -0.5 47
2018-08-25 12:00:00 30.2 6 Oeste 14 Oeste 0 944.2 0.8 52
2018-08-25 11:00:00 28.2 4 Oeste 9 Sudoeste 0 944.2 1.2 56
2018-08-25 10:00:00 25.5 2 Norte 6 Norte 0 943.9 0.8 69
2018-08-25 09:00:00 22.7 0 Calma 2 Norte 0 943.4 0.4 74
2018-08-25 08:00:00 20.2 0 Calma 0 Calma 0 943 -0.3 78
2018-08-25 07:00:00 20 0 Calma 6 Norte 0 943.1 -0.5 73
2018-08-25 06:00:00 21.7 0 Calma 5 Nordeste 0 943 -0.5 66
2018-08-25 05:00:00 22.6 3 Nordeste 11 Sur 0 943.3 -0.3 63
2018-08-25 04:00:00 24.3 2 Sur 17 Sur 0 943.6 0.1 59
2018-08-25 03:00:00 25.3 13 Sudeste 15 Sudeste 0 943.5 0 58
2018-08-25 02:00:00 25 6 Sudeste 9 Sudeste 0 943.6 -0.3 59
2018-08-25 01:00:00 26.1 5 Nordeste 17 Sur 0 943.5 -0.3 57
2018-08-25 00:00:00 26.3 5 Sur 13 Sur 0 943.5 0 57